Time;durP1;ratioP1;P1;durP2;ratioP2;P2;SDS_P1;SDS_P2;PMS_P1;PMS_P2;Temp;Humidity;BMP_temperature;BMP_pressure;BME280_temperature;BME280_humidity;BME280_pressure;Samples;Min_cycle;Max_cycle;Signal;HPM_P1;HPM_P2
2023/08/14 00:01:02;;;;;;;0.30;0.17;;;15.70;99.90;;;;;;5032335;28;20383;-67
2023/08/14 00:03:28;;;;;;;2.10;1.23;;;15.70;99.90;;;;;;5030758;28;20467;-67
2023/08/14 00:05:53;;;;;;;0.90;0.87;;;15.70;99.90;;;;;;5026539;28;20061;-68
2023/08/14 00:08:19;;;;;;;0.20;0.20;;;15.70;99.90;;;;;;5037575;28;20087;-67
2023/08/14 00:10:45;;;;;;;0.13;0.13;;;15.70;99.90;;;;;;5037613;28;20037;-67
2023/08/14 00:13:12;;;;;;;0.33;0.27;;;15.60;99.90;;;;;;5038312;28;20041;-67
2023/08/14 00:15:38;;;;;;;0.10;0.10;;;15.60;99.90;;;;;;5037413;28;20068;-68
2023/08/14 00:18:04;;;;;;;0.40;0.37;;;15.70;99.90;;;;;;5038157;28;20045;-67
2023/08/14 00:20:30;;;;;;;0.75;0.75;;;15.60;99.90;;;;;;5036879;28;20108;-68
2023/08/14 00:22:55;;;;;;;0.27;0.27;;;15.70;99.90;;;;;;5037685;28;20120;-67
2023/08/14 00:25:22;;;;;;;0.20;0.20;;;15.70;99.90;;;;;;5032633;28;20037;-67
2023/08/14 00:27:48;;;;;;;6.88;1.45;;;15.60;99.90;;;;;;5037383;28;20033;-67
2023/08/14 00:30:13;;;;;;;0.37;0.37;;;15.60;99.90;;;;;;5038226;28;20087;-67
2023/08/14 00:32:39;;;;;;;0.10;0.10;;;15.60;99.90;;;;;;5037959;28;20028;-67
2023/08/14 00:35:05;;;;;;;0.00;0.00;;;15.60;99.90;;;;;;5036928;28;20041;-68
2023/08/14 00:37:48;;;;;;;18.37;2.80;;;15.60;99.90;;;;;;5032918;28;20106;-67
2023/08/14 00:40:16;;;;;;;3.10;1.30;;;15.60;99.90;;;;;;5057182;28;20104;-67
2023/08/14 00:42:47;;;;;;;0.40;0.40;;;15.50;99.90;;;;;;5035524;28;20033;-68
2023/08/14 00:45:13;;;;;;;3.20;0.43;;;15.50;99.90;;;;;;5028483;28;20384;-68
2023/08/14 00:47:42;;;;;;;0.65;0.65;;;15.50;99.90;;;;;;5035978;28;20030;-67
2023/08/14 00:50:08;;;;;;;3.92;1.83;;;15.50;99.90;;;;;;5045318;28;20043;-67
2023/08/14 00:52:42;;;;;;;0.20;0.20;;;15.50;99.90;;;;;;5039865;28;20075;-79
2023/08/14 00:55:13;;;;;;;0.17;0.17;;;15.50;99.90;;;;;;5043025;28;20440;-67
2023/08/14 00:57:39;;;;;;;12.02;0.50;;;15.50;99.90;;;;;;5039930;28;20025;-68
2023/08/14 01:00:06;;;;;;;0.50;0.50;;;15.50;99.90;;;;;;5032832;28;20433;-67
2023/08/14 01:02:34;;;;;;;0.05;0.05;;;15.50;99.90;;;;;;5032774;28;20029;-67
2023/08/14 01:05:00;;;;;;;0.20;0.20;;;15.50;99.90;;;;;;5038732;28;20029;-67
2023/08/14 01:07:26;;;;;;;0.88;0.75;;;15.60;99.90;;;;;;5034918;28;20513;-67
2023/08/14 01:09:52;;;;;;;0.07;0.07;;;15.60;99.90;;;;;;5034800;28;20037;-67
2023/08/14 01:12:45;;;;;;;0.17;0.17;;;15.50;99.90;;;;;;5038693;28;20057;-68
2023/08/14 01:15:15;;;;;;;0.20;0.20;;;15.50;99.90;;;;;;5032186;28;20034;-68
2023/08/14 01:17:48;;;;;;;0.10;0.10;;;15.50;99.90;;;;;;5041964;28;20121;-67
2023/08/14 01:20:17;;;;;;;0.20;0.20;;;15.50;99.90;;;;;;5025283;28;20079;-67
2023/08/14 01:23:06;;;;;;;1.27;0.50;;;15.50;99.90;;;;;;5028828;28;20014;-67
2023/08/14 01:25:37;;;;;;;0.10;0.10;;;15.50;99.90;;;;;;5028481;28;20038;-67
2023/08/14 01:28:04;;;;;;;0.17;0.17;;;15.50;99.90;;;;;;5032116;28;20606;-67
2023/08/14 01:30:30;;;;;;;0.20;0.20;;;15.50;99.90;;;;;;5031527;28;20033;-67
2023/08/14 01:32:56;;;;;;;0.30;0.30;;;15.50;99.90;;;;;;5033832;28;20443;-67
2023/08/14 01:35:24;;;;;;;0.25;0.25;;;15.40;99.90;;;;;;5036374;28;20037;-67
2023/08/14 01:37:59;;;;;;;0.93;0.28;;;15.40;99.90;;;;;;5036875;28;20071;-68
2023/08/14 01:40:33;;;;;;;0.40;0.40;;;15.40;99.90;;;;;;5035798;28;20076;-67
2023/08/14 01:43:08;;;;;;;3.92;1.48;;;15.40;99.90;;;;;;5036271;28;20055;-68
2023/08/14 01:45:35;;;;;;;1.75;0.52;;;15.50;99.90;;;;;;5028568;28;20025;-80
2023/08/14 01:48:06;;;;;;;0.10;0.10;;;15.50;99.90;;;;;;5036844;28;20361;-68
2023/08/14 01:50:32;;;;;;;0.10;0.10;;;15.50;99.90;;;;;;5051560;28;20039;-68
2023/08/14 01:52:58;;;;;;;1.20;1.10;;;15.50;99.90;;;;;;5035703;28;20053;-68
2023/08/14 01:55:25;;;;;;;0.00;0.00;;;15.50;99.90;;;;;;5036162;28;20084;-68
2023/08/14 01:57:53;;;;;;;0.10;0.10;;;15.50;99.90;;;;;;5036607;28;20259;-68
2023/08/14 02:00:20;;;;;;;0.22;0.22;;;15.40;99.90;;;;;;5053386;28;20116;-67
2023/08/14 02:02:46;;;;;;;0.40;0.40;;;15.40;99.90;;;;;;5032988;28;20066;-67
2023/08/14 02:05:12;;;;;;;12.32;1.48;;;15.30;99.90;;;;;;5035933;28;20037;-67
2023/08/14 02:07:38;;;;;;;2.33;0.30;;;15.30;99.90;;;;;;5036391;28;20091;-67
2023/08/14 02:10:04;;;;;;;0.83;0.83;;;15.30;99.90;;;;;;5036351;28;20076;-67
2023/08/14 02:12:32;;;;;;;0.75;0.55;;;15.30;99.90;;;;;;5035258;28;20120;-67
2023/08/14 02:14:58;;;;;;;5.82;1.25;;;15.30;99.90;;;;;;5036242;28;20082;-67
2023/08/14 02:17:27;;;;;;;0.47;0.47;;;15.30;99.90;;;;;;5031497;28;20097;-68
2023/08/14 02:19:53;;;;;;;0.08;0.08;;;15.30;99.90;;;;;;5029531;28;20100;-78
2023/08/14 02:22:19;;;;;;;0.22;0.22;;;15.30;99.90;;;;;;5031845;28;20025;-67
2023/08/14 02:24:45;;;;;;;0.47;0.47;;;15.30;99.90;;;;;;5034696;28;20033;-68
2023/08/14 02:27:10;;;;;;;0.10;0.10;;;15.30;99.90;;;;;;5034889;28;20025;-67
2023/08/14 02:29:36;;;;;;;1.97;0.27;;;15.30;99.90;;;;;;5029224;28;20140;-68
2023/08/14 02:32:03;;;;;;;0.30;0.30;;;15.30;99.90;;;;;;5035356;28;20033;-67
2023/08/14 02:34:49;;;;;;;0.10;0.10;;;15.30;99.90;;;;;;5036986;28;20025;-68
2023/08/14 02:37:16;;;;;;;7.50;2.03;;;15.40;99.90;;;;;;5035872;28;20029;-68
2023/08/14 02:39:43;;;;;;;0.30;0.30;;;15.40;99.90;;;;;;5032957;28;20080;-68
2023/08/14 02:42:10;;;;;;;0.30;0.30;;;15.30;99.90;;;;;;5020911;28;20049;-68
2023/08/14 02:44:36;;;;;;;0.82;0.63;;;15.40;99.90;;;;;;5034281;28;20041;-75
2023/08/14 02:47:02;;;;;;;1.13;0.80;;;15.40;99.90;;;;;;5021177;28;20029;-68
2023/08/14 02:49:27;;;;;;;0.20;0.20;;;15.40;99.90;;;;;;5037875;28;20303;-68
2023/08/14 02:51:53;;;;;;;1.33;0.80;;;15.40;99.90;;;;;;5034524;28;20045;-67
2023/08/14 02:54:19;;;;;;;0.30;0.30;;;15.40;99.90;;;;;;5035624;28;20032;-68
2023/08/14 02:56:45;;;;;;;0.52;0.47;;;15.40;99.90;;;;;;5041347;28;20113;-67
2023/08/14 02:59:11;;;;;;;0.37;0.37;;;15.40;99.90;;;;;;5033255;28;20065;-67
2023/08/14 03:01:37;;;;;;;0.60;0.20;;;15.40;99.90;;;;;;5030021;28;20029;-67
2023/08/14 03:04:03;;;;;;;0.30;0.30;;;15.40;99.90;;;;;;5022849;28;20109;-68
2023/08/14 03:06:31;;;;;;;0.05;0.05;;;15.40;99.90;;;;;;5025871;28;20036;-67
2023/08/14 03:09:00;;;;;;;1.08;0.65;;;15.40;99.90;;;;;;5033413;28;20041;-67
2023/08/14 03:11:26;;;;;;;3.90;1.75;;;15.40;99.90;;;;;;5029541;28;20069;-67
2023/08/14 03:13:52;;;;;;;0.93;0.73;;;15.40;99.90;;;;;;5040035;28;20029;-68
2023/08/14 03:16:17;;;;;;;0.67;0.67;;;15.40;99.90;;;;;;5030307;28;20041;-67
2023/08/14 03:18:43;;;;;;;0.83;0.83;;;15.40;99.90;;;;;;5035169;28;20044;-68
2023/08/14 03:21:09;;;;;;;0.27;0.23;;;15.30;99.90;;;;;;5032522;28;20423;-67
2023/08/14 03:23:35;;;;;;;0.73;0.73;;;15.40;99.90;;;;;;5040229;28;20430;-81
2023/08/14 03:26:02;;;;;;;0.63;0.63;;;15.40;99.90;;;;;;5032342;28;20029;-67
2023/08/14 03:28:28;;;;;;;0.57;0.57;;;15.40;99.90;;;;;;5032818;28;20433;-67
2023/08/14 03:30:54;;;;;;;1.80;0.70;;;15.40;99.90;;;;;;5026731;28;20040;-67
2023/08/14 03:33:20;;;;;;;0.40;0.40;;;15.30;99.90;;;;;;5034648;28;20040;-67
2023/08/14 03:35:46;;;;;;;1.00;1.00;;;15.30;99.90;;;;;;5032728;28;20033;-67
2023/08/14 03:38:11;;;;;;;1.93;0.77;;;15.30;99.90;;;;;;5034808;28;20060;-67
2023/08/14 03:40:37;;;;;;;0.50;0.50;;;15.30;99.90;;;;;;5033959;28;20333;-67
2023/08/14 03:43:03;;;;;;;0.20;0.20;;;15.30;99.90;;;;;;5027940;28;20026;-67
2023/08/14 03:45:29;;;;;;;0.83;0.77;;;15.30;99.90;;;;;;5033753;28;20108;-67
2023/08/14 03:47:54;;;;;;;0.50;0.50;;;15.30;99.90;;;;;;5026790;28;20046;-67
2023/08/14 03:50:20;;;;;;;0.90;0.77;;;15.30;99.90;;;;;;5034636;28;20059;-67
2023/08/14 03:52:47;;;;;;;0.43;0.43;;;15.20;99.90;;;;;;5030236;28;20064;-68
2023/08/14 03:55:13;;;;;;;0.28;0.28;;;15.30;99.90;;;;;;5034216;28;20037;-67
2023/08/14 03:57:39;;;;;;;1.13;1.00;;;15.20;99.90;;;;;;5049163;28;20018;-67
2023/08/14 04:00:05;;;;;;;0.30;0.30;;;15.20;99.90;;;;;;5034269;28;20029;-67
2023/08/14 04:02:31;;;;;;;0.65;0.63;;;15.20;99.90;;;;;;5033590;28;20021;-67
2023/08/14 04:04:57;;;;;;;1.40;1.17;;;15.20;99.90;;;;;;5034088;28;20145;-67
2023/08/14 04:07:22;;;;;;;1.40;0.70;;;15.20;99.90;;;;;;5033693;28;20025;-67
2023/08/14 04:09:48;;;;;;;1.20;1.10;;;15.20;99.90;;;;;;5049500;28;20321;-68
2023/08/14 04:12:14;;;;;;;1.50;1.03;;;15.20;99.90;;;;;;5034011;28;20130;-68
2023/08/14 04:14:39;;;;;;;1.47;1.40;;;15.20;99.90;;;;;;5028477;28;20025;-68
2023/08/14 04:17:05;;;;;;;0.33;0.33;;;15.20;99.90;;;;;;5033240;28;20042;-67
2023/08/14 04:19:30;;;;;;;0.83;0.83;;;15.20;99.90;;;;;;5033664;28;20018;-67
2023/08/14 04:21:56;;;;;;;2.10;0.70;;;15.20;99.90;;;;;;5032773;28;20032;-67
2023/08/14 04:24:22;;;;;;;0.40;0.40;;;15.20;99.90;;;;;;5033647;28;20025;-67
2023/08/14 04:26:48;;;;;;;1.30;0.83;;;15.10;99.90;;;;;;5029574;28;20366;-67
2023/08/14 04:29:15;;;;;;;2.60;1.33;;;15.10;99.90;;;;;;5026642;28;20021;-78
2023/08/14 04:31:41;;;;;;;1.70;0.60;;;15.10;99.90;;;;;;5046776;28;20033;-68
2023/08/14 04:34:08;;;;;;;0.50;0.50;;;15.00;99.90;;;;;;5034108;28;20079;-67
2023/08/14 04:36:35;;;;;;;0.35;0.35;;;15.00;99.90;;;;;;5033755;28;20095;-78
2023/08/14 04:39:03;;;;;;;0.40;0.40;;;15.00;99.90;;;;;;5033343;28;20065;-67
2023/08/14 04:41:29;;;;;;;0.55;0.40;;;14.90;99.90;;;;;;5033695;28;20036;-67
2023/08/14 04:43:54;;;;;;;1.93;1.40;;;15.00;99.90;;;;;;5033398;28;20030;-67
2023/08/14 04:46:37;;;;;;;0.93;0.30;;;14.90;99.90;;;;;;5034228;28;20037;-68
2023/08/14 04:49:04;;;;;;;2.30;0.30;;;15.00;99.90;;;;;;5033294;28;20032;-68
2023/08/14 04:51:30;;;;;;;0.47;0.47;;;15.00;99.90;;;;;;5031189;28;20324;-68
2023/08/14 04:53:58;;;;;;;0.30;0.30;;;15.00;99.90;;;;;;5032521;28;20045;-68
2023/08/14 04:56:24;;;;;;;1.05;1.00;;;15.00;99.90;;;;;;5037484;28;20045;-68
2023/08/14 04:58:50;;;;;;;0.38;0.35;;;15.00;99.90;;;;;;5034983;28;20068;-67
2023/08/14 05:01:16;;;;;;;0.82;0.40;;;15.00;99.90;;;;;;5035621;28;20029;-67
2023/08/14 05:03:42;;;;;;;0.27;0.23;;;15.10;99.90;;;;;;5034646;28;20048;-68
2023/08/14 05:06:07;;;;;;;0.53;0.53;;;15.10;99.90;;;;;;5040189;28;20100;-67
2023/08/14 05:08:33;;;;;;;2.73;2.40;;;15.10;99.90;;;;;;5037392;28;20029;-79
2023/08/14 05:10:59;;;;;;;2.50;1.13;;;15.20;99.90;;;;;;5034504;28;20063;-68
2023/08/14 05:13:25;;;;;;;0.43;0.30;;;15.20;99.90;;;;;;5036461;28;20029;-67
2023/08/14 05:15:51;;;;;;;0.23;0.23;;;15.20;99.90;;;;;;5030803;28;20412;-67
2023/08/14 05:18:17;;;;;;;0.63;0.63;;;15.20;99.90;;;;;;5036664;28;20083;-67
2023/08/14 05:20:47;;;;;;;1.17;0.47;;;15.30;99.90;;;;;;5036054;28;20361;-67
2023/08/14 05:23:14;;;;;;;0.28;0.28;;;15.30;99.90;;;;;;5033858;28;20022;-68
2023/08/14 05:25:42;;;;;;;0.75;0.38;;;15.40;99.90;;;;;;5031909;28;20040;-67
2023/08/14 05:28:08;;;;;;;3.60;1.10;;;15.40;99.90;;;;;;5031257;28;20358;-67
2023/08/14 05:30:33;;;;;;;1.13;0.50;;;15.50;99.90;;;;;;5037690;28;20083;-68
2023/08/14 05:33:00;;;;;;;0.40;0.40;;;15.50;99.90;;;;;;5038264;28;20083;-67
2023/08/14 05:35:26;;;;;;;4.78;0.85;;;15.50;99.90;;;;;;5033980;28;20030;-68
2023/08/14 05:37:58;;;;;;;2.23;1.40;;;15.40;99.90;;;;;;5032326;28;20040;-68
2023/08/14 05:40:27;;;;;;;1.42;1.33;;;15.50;99.90;;;;;;5032925;28;20087;-68
2023/08/14 05:43:06;;;;;;;1.35;1.00;;;15.50;99.90;;;;;;5032430;28;20421;-67
2023/08/14 05:45:36;;;;;;;0.30;0.30;;;15.50;99.90;;;;;;5032817;28;20040;-67
2023/08/14 05:48:03;;;;;;;0.35;0.35;;;15.50;99.90;;;;;;5030603;28;20029;-68
2023/08/14 05:50:29;;;;;;;0.25;0.25;;;15.50;99.90;;;;;;5032594;28;20030;-69
2023/08/14 05:52:56;;;;;;;0.90;0.75;;;15.50;99.90;;;;;;5026776;28;20041;-68
2023/08/14 05:55:22;;;;;;;;;;;15.60;99.90;;;;;;5030294;28;20040;-68
2023/08/14 05:57:48;;;;;;;0.28;0.28;;;15.60;99.90;;;;;;5037345;28;20282;-68
2023/08/14 06:00:14;;;;;;;0.43;0.43;;;15.60;99.90;;;;;;5030777;28;20185;-67
2023/08/14 06:02:40;;;;;;;0.57;0.57;;;15.60;99.90;;;;;;5037810;28;20040;-68
2023/08/14 06:05:08;;;;;;;0.63;0.30;;;15.70;99.90;;;;;;5049034;28;20109;-68
2023/08/14 06:07:34;;;;;;;0.20;0.20;;;15.70;99.90;;;;;;5025971;28;20060;-68
2023/08/14 06:09:59;;;;;;;0.85;0.80;;;15.70;99.90;;;;;;5032810;28;20025;-68
2023/08/14 06:12:25;;;;;;;0.30;0.30;;;15.80;99.90;;;;;;5036188;28;20104;-68
2023/08/14 06:14:51;;;;;;;0.70;0.70;;;15.80;99.90;;;;;;5038072;28;20025;-68
2023/08/14 06:17:16;;;;;;;6.53;1.70;;;15.90;99.90;;;;;;5018718;28;20079;-68
2023/08/14 06:19:42;;;;;;;0.30;0.30;;;15.90;99.90;;;;;;5022976;28;20032;-68
2023/08/14 06:22:08;;;;;;;0.10;0.10;;;16.00;99.90;;;;;;5049822;28;20153;-68
2023/08/14 06:24:33;;;;;;;0.20;0.20;;;16.00;99.90;;;;;;5026189;28;20109;-79
2023/08/14 06:26:59;;;;;;;1.63;0.63;;;16.10;99.90;;;;;;5026900;28;20044;-69
2023/08/14 06:29:25;;;;;;;2.53;0.90;;;16.20;99.90;;;;;;5023725;28;20033;-68
2023/08/14 06:31:50;;;;;;;0.30;0.30;;;16.30;99.90;;;;;;5041769;28;20033;-68
2023/08/14 06:34:16;;;;;;;0.30;0.30;;;16.40;99.90;;;;;;5031986;28;20029;-68
2023/08/14 06:36:42;;;;;;;1.45;0.82;;;16.60;99.90;;;;;;5034810;28;20037;-68
2023/08/14 06:39:08;;;;;;;0.22;0.22;;;16.60;99.90;;;;;;5033153;28;20068;-68
2023/08/14 06:41:33;;;;;;;0.10;0.10;;;16.70;99.90;;;;;;5036702;28;20111;-68
2023/08/14 06:43:59;;;;;;;0.30;0.30;;;16.60;99.90;;;;;;5049429;28;20029;-68
2023/08/14 06:46:25;;;;;;;0.40;0.40;;;16.70;99.90;;;;;;5032489;28;20052;-80
2023/08/14 06:48:50;;;;;;;0.40;0.40;;;16.80;99.90;;;;;;5033185;28;20037;-68
2023/08/14 06:51:16;;;;;;;24.33;2.63;;;16.80;99.90;;;;;;5035101;28;20035;-68
2023/08/14 06:53:42;;;;;;;0.23;0.23;;;16.90;99.90;;;;;;5032057;28;20036;-68
2023/08/14 06:56:07;;;;;;;0.40;0.40;;;16.90;99.90;;;;;;5030463;28;20038;-68
2023/08/14 06:58:33;;;;;;;1.43;0.83;;;17.00;99.90;;;;;;5033496;28;20032;-75
2023/08/14 07:00:59;;;;;;;0.80;0.53;;;17.10;99.90;;;;;;5030392;28;20025;-68
2023/08/14 07:03:25;;;;;;;0.73;0.73;;;17.10;99.90;;;;;;5029292;28;20076;-68
2023/08/14 07:05:50;;;;;;;1.13;1.13;;;17.20;99.90;;;;;;5049880;28;20034;-68
2023/08/14 07:08:16;;;;;;;1.60;1.47;;;17.40;99.90;;;;;;5025315;28;20088;-68
2023/08/14 07:10:41;;;;;;;0.87;0.87;;;17.50;99.90;;;;;;5021030;28;20049;-68
2023/08/14 07:13:08;;;;;;;0.60;0.60;;;17.70;99.90;;;;;;5024840;28;20026;-68
2023/08/14 07:15:33;;;;;;;0.30;0.28;;;17.80;99.90;;;;;;5030161;28;20025;-69
2023/08/14 07:17:59;;;;;;;0.27;0.27;;;17.90;99.90;;;;;;5031090;28;20063;-68
2023/08/14 07:20:26;;;;;;;0.10;0.10;;;18.10;99.90;;;;;;5033051;28;20051;-69
2023/08/14 07:22:52;;;;;;;0.95;0.55;;;18.20;99.90;;;;;;5035173;28;20031;-68
2023/08/14 07:25:18;;;;;;;0.63;0.63;;;18.30;99.90;;;;;;5035936;28;20376;-68
2023/08/14 07:27:44;;;;;;;0.40;0.40;;;18.50;99.90;;;;;;5049461;28;20033;-69
2023/08/14 07:30:10;;;;;;;0.35;0.35;;;18.70;99.90;;;;;;5029411;28;20037;-68
2023/08/14 07:32:36;;;;;;;2.00;1.42;;;18.90;99.90;;;;;;5031297;28;20120;-68
2023/08/14 07:35:02;;;;;;;0.03;0.03;;;19.10;99.90;;;;;;5033268;28;20036;-69
2023/08/14 07:37:28;;;;;;;0.22;0.22;;;19.20;99.90;;;;;;5029364;28;20383;-68
2023/08/14 07:39:54;;;;;;;0.05;0.05;;;19.30;99.90;;;;;;5032159;28;20049;-80
2023/08/14 07:42:20;;;;;;;0.83;0.60;;;19.30;99.90;;;;;;5032529;28;20120;-68
2023/08/14 07:44:45;;;;;;;0.17;0.17;;;19.30;99.90;;;;;;5049813;28;20116;-69
2023/08/14 07:47:12;;;;;;;0.10;0.10;;;19.30;99.90;;;;;;5049466;28;20029;-69
2023/08/14 07:49:38;;;;;;;;;;;19.40;99.90;;;;;;5036670;28;20033;-69
2023/08/14 07:52:04;;;;;;;0.50;0.50;;;19.60;99.90;;;;;;5033094;28;19909;-68
2023/08/14 07:54:30;;;;;;;0.00;0.00;;;19.60;99.90;;;;;;5034147;28;20045;-68
2023/08/14 07:56:55;;;;;;;0.20;0.17;;;19.70;99.90;;;;;;5033891;28;20040;-69
2023/08/14 07:59:21;;;;;;;1.30;0.60;;;19.80;99.90;;;;;;5025739;28;20340;-68
2023/08/14 08:01:47;;;;;;;0.20;0.20;;;19.90;99.90;;;;;;5029479;28;20405;-69
2023/08/14 08:04:13;;;;;;;0.20;0.20;;;20.00;99.90;;;;;;5048926;28;20083;-68
2023/08/14 08:06:39;;;;;;;1.70;0.57;;;20.10;99.90;;;;;;5031868;28;20037;-69
2023/08/14 08:09:05;;;;;;;0.10;0.08;;;20.20;99.90;;;;;;5030763;28;20033;-69
2023/08/14 08:11:30;;;;;;;0.00;0.00;;;20.30;99.90;;;;;;5047451;28;20033;-68
2023/08/14 08:13:58;;;;;;;0.20;0.20;;;20.50;99.90;;;;;;5025617;28;20390;-69
2023/08/14 08:16:25;;;;;;;0.05;0.05;;;20.80;99.90;;;;;;5036487;28;20032;-69
2023/08/14 08:18:50;;;;;;;0.00;0.00;;;21.10;99.90;;;;;;5042159;28;20025;-68
2023/08/14 08:21:16;;;;;;;0.27;0.27;;;21.30;99.90;;;;;;5041974;28;20033;-69
2023/08/14 08:23:42;;;;;;;0.33;0.30;;;21.40;99.90;;;;;;5023231;28;20092;-68
2023/08/14 08:26:08;;;;;;;0.10;0.10;;;21.60;99.90;;;;;;5032705;28;20405;-68
2023/08/14 08:28:33;;;;;;;0.43;0.43;;;21.70;99.90;;;;;;5036955;28;20332;-69
2023/08/14 08:30:59;;;;;;;1.00;0.50;;;22.00;99.90;;;;;;5037674;28;20033;-68
2023/08/14 08:33:25;;;;;;;0.20;0.10;;;22.10;99.90;;;;;;5030540;28;20096;-68
2023/08/14 08:35:50;;;;;;;3.37;1.00;;;22.30;99.90;;;;;;5032573;28;20040;-68
2023/08/14 08:38:18;;;;;;;0.20;0.20;;;22.30;99.90;;;;;;5045772;28;20025;-69
2023/08/14 08:40:48;;;;;;;0.00;0.00;;;22.40;99.90;;;;;;5033800;28;20049;-69
2023/08/14 08:43:15;;;;;;;0.10;0.10;;;22.60;99.90;;;;;;5034814;28;21534;-68
2023/08/14 08:45:47;;;;;;;0.00;0.00;;;22.70;99.90;;;;;;5036972;28;20052;-68
2023/08/14 08:48:16;;;;;;;0.00;0.00;;;22.70;99.90;;;;;;5037360;28;20072;-68
2023/08/14 08:50:42;;;;;;;1.08;0.43;;;22.90;99.90;;;;;;5029366;28;20117;-79
2023/08/14 08:53:08;;;;;;;0.00;0.00;;;23.00;99.90;;;;;;5034341;28;20061;-68
2023/08/14 08:55:34;;;;;;;0.10;0.10;;;23.20;99.90;;;;;;5033994;28;20035;-82
2023/08/14 08:58:01;;;;;;;0.10;0.10;;;23.20;99.90;;;;;;5035511;28;20420;-68
2023/08/14 09:00:28;;;;;;;;;;;23.40;99.90;;;;;;5031335;28;20117;-69
2023/08/14 09:02:53;;;;;;;0.00;0.00;;;23.50;99.90;;;;;;5042262;28;19958;-68
2023/08/14 09:05:20;;;;;;;0.33;0.33;;;23.50;99.90;;;;;;5029344;28;20025;-68
2023/08/14 09:07:46;;;;;;;;;;;23.50;99.90;;;;;;5052738;28;20044;-68
2023/08/14 09:10:12;;;;;;;0.20;0.10;;;23.50;99.90;;;;;;5042340;28;20296;-80
2023/08/14 09:12:37;;;;;;;0.00;0.00;;;23.70;99.90;;;;;;5030625;28;20116;-68
2023/08/14 09:15:06;;;;;;;0.53;0.53;;;23.80;99.90;;;;;;5029461;28;20410;-69
2023/08/14 09:17:32;;;;;;;0.00;0.00;;;23.80;99.90;;;;;;5029894;28;20357;-68
2023/08/14 09:19:58;;;;;;;4.18;0.63;;;23.90;99.90;;;;;;5029220;28;20026;-69
2023/08/14 09:22:28;;;;;;;0.90;0.90;;;24.00;99.90;;;;;;5039122;28;20029;-85
2023/08/14 09:24:55;;;;;;;0.10;0.10;;;24.10;99.90;;;;;;5041797;28;20025;-79
2023/08/14 09:27:22;;;;;;;0.10;0.10;;;24.20;99.90;;;;;;5033543;28;20041;-79
2023/08/14 09:29:53;;;;;;;0.05;0.05;;;24.20;99.90;;;;;;5036301;28;20096;-70
2023/08/14 09:32:23;;;;;;;0.17;0.17;;;24.40;99.90;;;;;;5033825;28;20041;-81
2023/08/14 09:34:55;;;;;;;0.20;0.20;;;24.40;99.90;;;;;;5036097;28;20029;-78
2023/08/14 09:37:21;;;;;;;0.52;0.52;;;24.40;99.90;;;;;;5029366;28;20032;-79
2023/08/14 09:39:47;;;;;;;0.13;0.13;;;24.40;99.90;;;;;;5024666;28;20037;-79
2023/08/14 09:42:12;;;;;;;0.40;0.30;;;24.50;99.90;;;;;;5036297;28;20028;-79
2023/08/14 09:44:38;;;;;;;0.63;0.43;;;24.60;99.90;;;;;;5038179;28;20443;-73
2023/08/14 09:47:04;;;;;;;0.20;0.20;;;24.70;99.90;;;;;;5031340;28;20306;-78
2023/08/14 09:49:30;;;;;;;0.28;0.28;;;24.80;99.90;;;;;;5034163;28;20091;-79
2023/08/14 09:51:57;;;;;;;0.15;0.15;;;24.80;99.90;;;;;;5027546;28;21634;-73
2023/08/14 09:54:33;;;;;;;0.50;0.50;;;24.80;99.90;;;;;;5028164;28;20021;-68
2023/08/14 09:57:00;;;;;;;0.38;0.38;;;24.80;99.90;;;;;;5035068;28;20133;-69
2023/08/14 09:59:26;;;;;;;;;;;24.70;99.90;;;;;;5036995;28;20033;-69
2023/08/14 10:01:54;;;;;;;1.10;0.88;;;24.80;99.90;;;;;;5024794;28;19916;-80
2023/08/14 10:04:22;;;;;;;0.00;0.00;;;24.90;99.90;;;;;;5031550;28;20025;-79
2023/08/14 10:06:49;;;;;;;0.28;0.28;;;25.00;99.90;;;;;;5040706;28;20021;-68
2023/08/14 10:09:17;;;;;;;0.32;0.32;;;25.10;99.90;;;;;;5031480;28;20331;-68
2023/08/14 10:11:44;;;;;;;0.43;0.43;;;25.10;99.90;;;;;;5035184;28;20044;-69
2023/08/14 10:14:14;;;;;;;0.05;0.05;;;25.00;99.90;;;;;;5035488;28;20320;-69
2023/08/14 10:16:42;;;;;;;0.38;0.38;;;25.00;99.90;;;;;;5029921;28;20029;-69
2023/08/14 10:19:12;;;;;;;0.30;0.25;;;25.10;99.90;;;;;;5030597;28;20017;-69
2023/08/14 10:21:41;;;;;;;0.25;0.25;;;25.30;99.90;;;;;;5029669;28;20455;-70
2023/08/14 10:24:08;;;;;;;0.13;0.05;;;25.40;99.90;;;;;;5035954;28;20079;-69
2023/08/14 10:26:34;;;;;;;0.20;0.20;;;25.50;99.90;;;;;;5028298;28;20030;-76
2023/08/14 10:29:00;;;;;;;0.93;0.93;;;25.60;99.90;;;;;;5031693;28;20040;-69
2023/08/14 10:31:30;;;;;;;0.08;0.08;;;25.80;99.90;;;;;;5032237;28;20041;-69
2023/08/14 10:33:58;;;;;;;0.55;0.38;;;25.90;99.90;;;;;;5041099;28;20075;-69
2023/08/14 10:36:30;;;;;;;0.10;0.10;;;25.80;99.90;;;;;;5045545;28;20025;-69
2023/08/14 10:39:10;;;;;;;0.10;0.10;;;25.80;99.90;;;;;;5040853;28;20025;-69
2023/08/14 10:41:36;;;;;;;1.55;0.75;;;25.60;99.90;;;;;;5031596;28;20038;-69
2023/08/14 10:44:10;;;;;;;0.00;0.00;;;25.50;99.90;;;;;;5033060;28;20034;-68
2023/08/14 10:46:39;;;;;;;0.05;0.05;;;25.30;99.90;;;;;;5025606;28;20040;-78
2023/08/14 10:49:05;;;;;;;0.10;0.10;;;25.10;99.90;;;;;;5030364;28;20316;-69
2023/08/14 10:51:33;;;;;;;0.00;0.00;;;25.00;99.90;;;;;;5038016;28;20026;-68
2023/08/14 10:54:16;;;;;;;3.40;1.92;;;24.80;99.90;;;;;;5031413;28;20336;-69
2023/08/14 10:56:47;;;;;;;0.77;0.68;;;24.80;99.90;;;;;;5033491;28;20104;-68
2023/08/14 10:59:28;;;;;;;0.10;0.10;;;24.80;99.90;;;;;;5029979;28;20032;-69
2023/08/14 11:02:05;;;;;;;0.57;0.25;;;25.00;99.90;;;;;;5037970;28;20367;-69
2023/08/14 11:04:36;;;;;;;0.45;0.43;;;25.20;99.90;;;;;;5037308;28;20020;-68
2023/08/14 11:07:05;;;;;;;0.10;0.10;;;25.50;99.90;;;;;;5033274;28;20025;-68
2023/08/14 11:09:36;;;;;;;0.22;0.22;;;25.50;99.90;;;;;;5027694;28;20298;-69
2023/08/14 11:12:09;;;;;;;0.00;0.00;;;25.50;99.90;;;;;;5029386;28;20033;-69
2023/08/14 11:14:38;;;;;;;0.00;0.00;;;25.70;99.90;;;;;;5032771;28;20029;-69
2023/08/14 11:17:04;;;;;;;0.50;0.50;;;25.80;99.90;;;;;;5046800;28;20673;-68
2023/08/14 11:19:32;;;;;;;0.50;0.50;;;25.90;99.90;;;;;;5031870;28;20039;-69
2023/08/14 11:21:58;;;;;;;0.10;0.10;;;26.10;99.90;;;;;;5024622;28;20037;-69
2023/08/14 11:24:24;;;;;;;0.10;0.10;;;26.20;99.90;;;;;;5036125;28;20107;-69
2023/08/14 11:26:49;;;;;;;0.60;0.60;;;26.30;99.90;;;;;;5033222;28;20065;-69
2023/08/14 11:29:15;;;;;;;2.23;0.93;;;26.40;99.90;;;;;;5032458;28;20029;-68
2023/08/14 11:31:44;;;;;;;0.57;0.57;;;26.50;99.90;;;;;;5028491;28;20313;-69
2023/08/14 11:34:10;;;;;;;0.10;0.10;;;26.50;99.90;;;;;;5032198;28;20824;-69
2023/08/14 11:36:41;;;;;;;0.10;0.10;;;26.50;99.90;;;;;;5033479;28;20033;-69
2023/08/14 11:39:07;;;;;;;0.10;0.10;;;26.40;99.90;;;;;;5033079;28;20037;-68
2023/08/14 11:41:36;;;;;;;2.72;1.98;;;26.40;99.90;;;;;;5027662;28;20042;-69
2023/08/14 11:44:02;;;;;;;0.17;0.17;;;26.40;99.90;;;;;;5029853;28;20065;-69
2023/08/14 11:46:28;;;;;;;3.50;1.38;;;26.30;99.90;;;;;;5033112;28;20052;-70
2023/08/14 11:48:53;;;;;;;0.03;0.03;;;26.20;99.90;;;;;;5032142;28;20025;-69
2023/08/14 11:51:20;;;;;;;0.00;0.00;;;26.20;99.90;;;;;;5024262;28;20454;-69
2023/08/14 11:53:45;;;;;;;0.20;0.20;;;26.30;99.90;;;;;;5032830;28;20657;-69
2023/08/14 11:56:12;;;;;;;1.65;0.30;;;26.30;99.90;;;;;;5032814;28;20064;-69
2023/08/14 11:58:38;;;;;;;0.63;0.63;;;26.30;99.90;;;;;;5033480;28;20029;-69
2023/08/14 12:01:05;;;;;;;0.00;0.00;;;26.30;99.90;;;;;;5032829;28;20021;-69
2023/08/14 12:03:31;;;;;;;0.05;0.05;;;26.20;99.90;;;;;;5022734;28;20057;-70
2023/08/14 12:06:16;;;;;;;0.03;0.03;;;26.30;99.90;;;;;;5030707;28;20053;-70
2023/08/14 12:08:42;;;;;;;0.65;0.65;;;26.40;99.90;;;;;;5027787;28;20032;-69
2023/08/14 12:11:08;;;;;;;0.25;0.25;;;26.50;99.90;;;;;;5032229;28;20034;-73
2023/08/14 12:13:34;;;;;;;0.38;0.35;;;26.70;99.90;;;;;;5028591;28;20040;-69
2023/08/14 12:16:07;;;;;;;0.28;0.28;;;26.80;99.90;;;;;;5029718;28;20029;-69
2023/08/14 12:18:33;;;;;;;0.30;0.30;;;26.90;99.90;;;;;;5026555;28;20025;-69
2023/08/14 12:20:58;;;;;;;0.45;0.40;;;27.10;99.90;;;;;;5030833;28;20293;-70
2023/08/14 12:23:25;;;;;;;0.17;0.17;;;27.10;99.90;;;;;;5030930;28;20064;-70
2023/08/14 12:25:54;;;;;;;0.28;0.17;;;27.10;99.90;;;;;;5025037;28;20033;-70
2023/08/14 12:28:20;;;;;;;0.00;0.00;;;27.10;99.90;;;;;;5032397;28;20056;-69
2023/08/14 12:30:48;;;;;;;0.00;0.00;;;27.20;99.90;;;;;;5028602;28;20124;-69
2023/08/14 12:33:14;;;;;;;0.05;0.05;;;27.20;99.90;;;;;;5026719;28;20023;-68
2023/08/14 12:35:40;;;;;;;14.80;0.52;;;27.20;99.90;;;;;;5030973;28;20033;-69
2023/08/14 12:38:06;;;;;;;0.30;0.30;;;27.30;99.90;;;;;;5030878;28;20034;-70
2023/08/14 12:40:32;;;;;;;0.00;0.00;;;27.40;99.90;;;;;;5030013;28;20042;-69
2023/08/14 12:42:58;;;;;;;;;;;27.40;99.90;;;;;;5032549;28;20032;-69
2023/08/14 12:45:23;;;;;;;;;;;27.40;99.90;;;;;;5029238;28;20212;-69
2023/08/14 12:47:49;;;;;;;0.10;0.10;;;27.40;99.90;;;;;;5032700;28;20011;-70